Time;durP1;ratioP1;P1;durP2;ratioP2;P2;SDS_P1;SDS_P2;PMS_P1;PMS_P2;Temp;Humidity;BMP_temperature;BMP_pressure;BME280_temperature;BME280_humidity;BME280_pressure;Samples;Min_cycle;Max_cycle;Signal;HPM_P1;HPM_P2
2023/06/03 00:02:07;;;;;;;29.93;28.13;;;;;;;;;;5043743;28;20915;-66
2023/06/03 00:04:32;;;;;;;31.80;29.77;;;;;;;;;;5041873;28;20399;-67
2023/06/03 00:06:58;;;;;;;30.67;28.57;;;;;;;;;;5024372;28;20032;-67
2023/06/03 00:09:24;;;;;;;30.87;28.87;;;;;;;;;;5042036;28;20134;-66
2023/06/03 00:11:50;;;;;;;32.30;30.20;;;;;;;;;;5042997;28;20044;-66
2023/06/03 00:14:16;;;;;;;31.33;29.20;;;;;;;;;;5043431;28;20544;-68
2023/06/03 00:16:47;;;;;;;30.17;28.17;;;;;;;;;;5042659;28;20295;-66
2023/06/03 00:19:14;;;;;;;28.73;26.87;;;;;;;;;;5044041;28;20044;-67
2023/06/03 00:21:49;;;;;;;32.63;30.50;;;;;;;;;;5015559;28;20301;-66
2023/06/03 00:24:20;;;;;;;29.02;27.20;;;;;;;;;;5043676;28;20306;-67
2023/06/03 00:26:45;;;;;;;29.07;27.17;;;;;;;;;;5014512;28;20155;-68
2023/06/03 00:29:11;;;;;;;28.43;26.70;;;;;;;;;;5042460;28;20283;-66
2023/06/03 00:31:36;;;;;;;29.77;27.90;;;;;;;;;;5042384;28;20041;-66
2023/06/03 00:34:02;;;;;;;30.43;28.57;;;;;;;;;;5042412;28;20095;-67
2023/06/03 00:36:27;;;;;;;29.30;27.47;;;;;;;;;;5042238;28;20190;-67
2023/06/03 00:38:53;;;;;;;29.37;27.53;;;;;;;;;;5030608;28;20037;-67
2023/06/03 00:41:19;;;;;;;29.80;27.93;;;;;;;;;;5042041;28;20755;-67
2023/06/03 00:43:44;;;;;;;32.50;30.30;;;;;;;;;;5013431;28;20021;-67
2023/06/03 00:46:10;;;;;;;31.60;29.60;;;;;;;;;;5042631;28;20275;-67
2023/06/03 00:48:37;;;;;;;29.43;27.43;;;;;;;;;;5015295;28;20336;-67
2023/06/03 00:51:03;;;;;;;28.60;26.80;;;;;;;;;;5043182;28;20617;-67
2023/06/03 00:53:28;;;;;;;28.60;26.80;;;;;;;;;;5041649;28;20321;-67
2023/06/03 00:55:53;;;;;;;28.73;27.07;;;;;;;;;;5023531;28;20040;-66
2023/06/03 00:58:19;;;;;;;30.23;28.43;;;;;;;;;;5042366;28;20087;-66
2023/06/03 01:00:45;;;;;;;29.07;27.23;;;;;;;;;;5041478;28;20053;-66
2023/06/03 01:03:13;;;;;;;28.23;26.40;;;;;;;;;;5042573;28;20033;-67
2023/06/03 01:05:42;;;;;;;29.97;28.00;;;;;;;;;;5042724;28;20488;-66
2023/06/03 01:08:18;;;;;;;27.20;25.60;;;;;;;;;;5041716;28;20372;-66
2023/06/03 01:10:47;;;;;;;31.60;29.33;;;;;;;;;;5041632;28;20275;-65
2023/06/03 01:13:33;;;;;;;30.23;28.23;;;;;;;;;;5042557;28;20286;-67
2023/06/03 01:16:04;;;;;;;31.03;29.10;;;;;;;;;;5041734;28;20795;-66
2023/06/03 01:18:33;;;;;;;27.93;26.17;;;;;;;;;;5042307;28;20276;-65
2023/06/03 01:21:00;;;;;;;29.07;27.23;;;;;;;;;;5042321;28;20287;-66
2023/06/03 01:23:33;;;;;;;27.60;25.83;;;;;;;;;;5039169;28;20060;-67
2023/06/03 01:26:00;;;;;;;27.83;26.03;;;;;;;;;;5041968;28;20800;-67
2023/06/03 01:28:28;;;;;;;38.67;36.10;;;;;;;;;;5012940;28;20425;-67
2023/06/03 01:30:54;;;;;;;28.47;26.63;;;;;;;;;;5040065;28;20287;-68
2023/06/03 01:33:20;;;;;;;28.53;26.80;;;;;;;;;;5041351;28;20298;-67
2023/06/03 01:35:47;;;;;;;31.97;29.87;;;;;;;;;;5022504;28;20383;-68
2023/06/03 01:38:13;;;;;;;28.20;26.37;;;;;;;;;;5022398;28;20504;-67
2023/06/03 01:40:39;;;;;;;28.77;26.97;;;;;;;;;;5023456;28;20310;-67
2023/06/03 01:43:05;;;;;;;28.40;26.60;;;;;;;;;;5056383;28;20574;-67
2023/06/03 01:45:31;;;;;;;29.17;27.27;;;;;;;;;;5037957;28;20044;-68
2023/06/03 01:47:56;;;;;;;26.80;25.23;;;;;;;;;;5023673;28;20098;-67
2023/06/03 01:50:22;;;;;;;27.70;25.80;;;;;;;;;;5042229;28;20522;-68
2023/06/03 01:52:47;;;;;;;25.27;23.83;;;;;;;;;;5042084;28;20485;-68
2023/06/03 01:55:13;;;;;;;25.97;24.40;;;;;;;;;;5041753;28;20295;-66
2023/06/03 01:57:39;;;;;;;29.10;27.20;;;;;;;;;;5038461;28;20045;-66
2023/06/03 02:00:09;;;;;;;30.17;28.07;;;;;;;;;;5021993;28;20041;-64
2023/06/03 02:02:40;;;;;;;30.03;28.00;;;;;;;;;;5041386;28;20083;-66
2023/06/03 02:05:06;;;;;;;27.30;25.57;;;;;;;;;;5056424;28;20382;-67
2023/06/03 02:07:31;;;;;;;26.90;25.20;;;;;;;;;;5040784;28;20065;-67
2023/06/03 02:09:58;;;;;;;29.03;27.10;;;;;;;;;;5000882;28;20395;-67
2023/06/03 02:12:23;;;;;;;30.20;28.30;;;;;;;;;;4999016;28;20038;-66
2023/06/03 02:14:53;;;;;;;25.00;23.50;;;;;;;;;;5001534;28;20675;-65
2023/06/03 02:17:20;;;;;;;25.20;23.40;;;;;;;;;;5001287;28;20504;-66
2023/06/03 02:19:45;;;;;;;25.87;24.23;;;;;;;;;;4989826;28;20648;-68
2023/06/03 02:22:12;;;;;;;26.20;24.57;;;;;;;;;;5000293;28;20356;-66
2023/06/03 02:24:38;;;;;;;26.50;24.73;;;;;;;;;;5000024;28;20042;-65
2023/06/03 02:27:04;;;;;;;26.13;24.40;;;;;;;;;;4984592;28;20794;-65
2023/06/03 02:29:30;;;;;;;29.13;27.10;;;;;;;;;;5001126;28;20095;-66
2023/06/03 02:31:56;;;;;;;24.87;23.27;;;;;;;;;;5001607;28;20284;-66
2023/06/03 02:34:22;;;;;;;27.17;25.43;;;;;;;;;;4989561;28;20147;-65
2023/06/03 02:36:49;;;;;;;26.20;24.50;;;;;;;;;;5000632;28;20316;-64
2023/06/03 02:39:16;;;;;;;27.47;25.63;;;;;;;;;;5000439;28;20041;-64
2023/06/03 02:41:42;;;;;;;28.93;27.00;;;;;;;;;;4999486;28;20763;-66
2023/06/03 02:44:07;;;;;;;28.63;26.67;;;;;;;;;;5000850;28;20283;-66
2023/06/03 02:46:34;;;;;;;38.80;36.63;;;;;;;;;;5015938;28;20288;-65
2023/06/03 02:49:07;;;;;;;36.80;34.73;;;;;;;;;;5001031;28;20030;-65
2023/06/03 02:51:33;;;;;;;32.83;30.93;;;;;;;;;;4999852;28;20387;-65
2023/06/03 02:53:59;;;;;;;26.10;24.47;;;;;;;;;;4989671;28;20734;-66
2023/06/03 02:56:25;;;;;;;27.23;25.50;;;;;;;;;;5000915;28;20877;-67
2023/06/03 02:58:51;;;;;;;27.20;25.53;;;;;;;;;;5000629;28;20029;-66
2023/06/03 03:01:20;;;;;;;26.97;25.27;;;;;;;;;;5000564;28;20556;-66
2023/06/03 03:03:46;;;;;;;28.00;26.20;;;;;;;;;;5001188;28;20030;-67
2023/06/03 03:06:14;;;;;;;27.13;25.43;;;;;;;;;;4997671;28;20422;-65
2023/06/03 03:08:40;;;;;;;28.07;26.07;;;;;;;;;;4996479;28;20332;-70
2023/06/03 03:11:09;;;;;;;26.97;25.33;;;;;;;;;;5020679;28;20303;-68
2023/06/03 03:13:35;;;;;;;26.77;25.07;;;;;;;;;;5029186;28;20605;-72
2023/06/03 03:16:00;;;;;;;26.97;25.20;;;;;;;;;;5024543;28;20296;-71
2023/06/03 03:18:27;;;;;;;26.73;25.00;;;;;;;;;;5024175;28;20441;-70
2023/06/03 03:20:53;;;;;;;27.73;26.00;;;;;;;;;;5042010;28;20636;-74
2023/06/03 03:23:20;;;;;;;30.17;28.03;;;;;;;;;;5013170;28;20648;-70
2023/06/03 03:25:46;;;;;;;28.97;27.20;;;;;;;;;;5024823;28;20164;-62
2023/06/03 03:28:12;;;;;;;27.10;25.47;;;;;;;;;;5038315;28;20288;-64
2023/06/03 03:30:40;;;;;;;35.77;33.10;;;;;;;;;;5033233;28;20033;-67
2023/06/03 03:33:07;;;;;;;26.50;24.90;;;;;;;;;;5009519;28;20793;-67
2023/06/03 03:35:32;;;;;;;27.10;25.43;;;;;;;;;;5037630;28;20354;-66
2023/06/03 03:38:02;;;;;;;28.53;26.73;;;;;;;;;;5021832;28;20082;-66
2023/06/03 03:40:29;;;;;;;30.30;28.33;;;;;;;;;;5037622;28;20179;-66
2023/06/03 03:42:58;;;;;;;26.77;25.07;;;;;;;;;;5019405;28;20626;-65
2023/06/03 03:45:29;;;;;;;29.07;27.23;;;;;;;;;;5036800;28;20288;-66
2023/06/03 03:47:59;;;;;;;28.00;26.10;;;;;;;;;;5021503;28;20311;-67
2023/06/03 03:50:27;;;;;;;26.50;24.80;;;;;;;;;;5023936;28;20287;-66
2023/06/03 03:53:01;;;;;;;27.03;25.30;;;;;;;;;;5023442;28;20334;-65
2023/06/03 03:55:27;;;;;;;27.23;25.40;;;;;;;;;;5038883;28;20322;-67
2023/06/03 03:57:52;;;;;;;29.73;27.67;;;;;;;;;;5022679;28;20304;-66
2023/06/03 04:00:20;;;;;;;30.43;28.37;;;;;;;;;;5037662;28;20599;-66
2023/06/03 04:02:53;;;;;;;30.00;27.77;;;;;;;;;;5039854;28;20030;-67
2023/06/03 04:05:23;;;;;;;32.17;30.03;;;;;;;;;;5022808;28;20387;-66
2023/06/03 04:07:48;;;;;;;32.03;29.67;;;;;;;;;;5024547;28;20741;-68
2023/06/03 04:10:15;;;;;;;29.97;28.03;;;;;;;;;;5042578;28;20274;-67
2023/06/03 04:12:40;;;;;;;28.03;26.13;;;;;;;;;;5041382;28;20106;-66
2023/06/03 04:15:09;;;;;;;26.40;24.63;;;;;;;;;;5022849;28;20322;-66
2023/06/03 04:17:35;;;;;;;29.27;27.40;;;;;;;;;;5038386;28;20360;-66
2023/06/03 04:20:01;;;;;;;30.17;28.00;;;;;;;;;;5021948;28;20275;-67
2023/06/03 04:22:28;;;;;;;26.97;25.23;;;;;;;;;;5036888;28;20321;-66
2023/06/03 04:24:58;;;;;;;28.07;26.37;;;;;;;;;;5039587;28;20374;-66
2023/06/03 04:27:31;;;;;;;28.70;26.87;;;;;;;;;;5039685;28;20047;-66
2023/06/03 04:29:58;;;;;;;30.57;28.67;;;;;;;;;;5020976;28;20658;-66
2023/06/03 04:32:24;;;;;;;31.57;29.37;;;;;;;;;;5038111;28;20867;-67
2023/06/03 04:34:53;;;;;;;29.77;27.90;;;;;;;;;;5041263;28;20619;-67
2023/06/03 04:37:20;;;;;;;32.07;29.90;;;;;;;;;;5029145;28;20153;-68
2023/06/03 04:39:46;;;;;;;32.63;30.57;;;;;;;;;;5013163;28;20282;-67
2023/06/03 04:42:12;;;;;;;30.03;28.13;;;;;;;;;;5023350;28;20337;-68
2023/06/03 04:44:39;;;;;;;32.37;30.27;;;;;;;;;;5022158;28;20025;-66
2023/06/03 04:47:10;;;;;;;28.80;26.97;;;;;;;;;;5013077;28;20307;-66
2023/06/03 04:49:37;;;;;;;33.03;30.80;;;;;;;;;;5023028;28;20293;-66
2023/06/03 04:52:03;;;;;;;39.53;36.20;;;;;;;;;;5042538;28;20259;-65
2023/06/03 04:54:29;;;;;;;32.80;30.67;;;;;;;;;;5029762;28;20341;-66
2023/06/03 04:56:55;;;;;;;30.27;28.47;;;;;;;;;;5041289;28;20499;-66
2023/06/03 04:59:20;;;;;;;31.23;29.37;;;;;;;;;;5041055;28;20044;-67
2023/06/03 05:01:51;;;;;;;28.97;27.23;;;;;;;;;;5013968;28;20037;-66
2023/06/03 05:04:21;;;;;;;34.17;31.60;;;;;;;;;;5023477;28;20279;-65
2023/06/03 05:06:49;;;;;;;35.87;33.03;;;;;;;;;;5012383;28;20287;-65
2023/06/03 05:09:15;;;;;;;31.90;30.02;;;;;;;;;;4965328;28;1210020;-66
2023/06/03 05:11:43;;;;;;;32.90;30.97;;;;;;;;;;5002744;28;20465;-66
2023/06/03 05:14:09;;;;;;;35.37;33.07;;;;;;;;;;5007439;28;20369;-66
2023/06/03 05:16:35;;;;;;;53.67;50.90;;;;;;;;;;5001357;28;20288;-66
2023/06/03 05:19:01;;;;;;;31.50;29.57;;;;;;;;;;4987589;28;20049;-66
2023/06/03 05:21:29;;;;;;;30.97;29.07;;;;;;;;;;5000227;28;20371;-65
2023/06/03 05:23:55;;;;;;;32.90;30.77;;;;;;;;;;5001589;28;20307;-65
2023/06/03 05:26:21;;;;;;;31.53;29.53;;;;;;;;;;5000515;28;21120;-68
2023/06/03 05:28:48;;;;;;;52.20;46.83;;;;;;;;;;5001177;28;20493;-66
2023/06/03 05:31:14;;;;;;;33.60;31.30;;;;;;;;;;5015733;28;20276;-65
2023/06/03 05:33:41;;;;;;;29.30;27.50;;;;;;;;;;4994145;28;20285;-64
2023/06/03 05:36:14;;;;;;;32.40;30.30;;;;;;;;;;5015240;28;20374;-65
2023/06/03 05:38:41;;;;;;;31.03;29.13;;;;;;;;;;4991011;28;20934;-64
2023/06/03 05:41:09;;;;;;;30.00;28.17;;;;;;;;;;5000372;28;20451;-64
2023/06/03 05:43:35;;;;;;;31.77;29.97;;;;;;;;;;4985141;28;20671;-63
2023/06/03 05:46:01;;;;;;;32.70;30.67;;;;;;;;;;4990421;28;20292;-64
2023/06/03 05:48:27;;;;;;;32.67;30.53;;;;;;;;;;5000639;28;20380;-64
2023/06/03 05:50:53;;;;;;;33.33;31.33;;;;;;;;;;5000839;28;20042;-63
2023/06/03 05:53:26;;;;;;;40.53;37.67;;;;;;;;;;5016355;28;20476;-63
2023/06/03 05:55:53;;;;;;;33.60;31.67;;;;;;;;;;5000791;28;20387;-63
2023/06/03 05:58:20;;;;;;;39.67;37.10;;;;;;;;;;5000729;28;20277;-62
2023/06/03 06:00:45;;;;;;;35.43;33.03;;;;;;;;;;4990008;28;20281;-64
2023/06/03 06:03:12;;;;;;;32.07;30.13;;;;;;;;;;5016336;28;20802;-62
2023/06/03 06:05:37;;;;;;;32.40;30.47;;;;;;;;;;4982665;28;20782;-64
2023/06/03 06:08:03;;;;;;;32.80;30.87;;;;;;;;;;5002802;28;20308;-64
2023/06/03 06:10:30;;;;;;;34.57;32.53;;;;;;;;;;5036711;28;20388;-63
2023/06/03 06:12:55;;;;;;;40.80;38.27;;;;;;;;;;5020804;28;20184;-62
2023/06/03 06:15:21;;;;;;;35.43;33.43;;;;;;;;;;5020357;28;20448;-62
2023/06/03 06:17:47;;;;;;;37.03;34.97;;;;;;;;;;5020077;28;20079;-63
2023/06/03 06:20:13;;;;;;;32.50;30.70;;;;;;;;;;5009657;28;20134;-63
2023/06/03 06:22:39;;;;;;;35.57;33.53;;;;;;;;;;5019628;28;20350;-63
2023/06/03 06:25:05;;;;;;;33.63;31.73;;;;;;;;;;5021161;28;20706;-61
2023/06/03 06:27:31;;;;;;;37.93;35.73;;;;;;;;;;5035080;28;20061;-63
2023/06/03 06:29:57;;;;;;;33.70;31.77;;;;;;;;;;5034684;28;20946;-62
2023/06/03 06:32:23;;;;;;;36.33;34.13;;;;;;;;;;5019952;28;20029;-63
2023/06/03 06:34:49;;;;;;;35.83;33.70;;;;;;;;;;5020981;28;20037;-62
2023/06/03 06:37:17;;;;;;;37.17;34.87;;;;;;;;;;5036047;28;20331;-62
2023/06/03 06:39:47;;;;;;;32.93;30.97;;;;;;;;;;5035641;28;20120;-63
2023/06/03 06:42:23;;;;;;;32.97;31.10;;;;;;;;;;5018890;28;20797;-63
2023/06/03 06:44:53;;;;;;;39.57;37.03;;;;;;;;;;5035158;28;20029;-64
2023/06/03 06:47:32;;;;;;;41.60;39.10;;;;;;;;;;5017262;28;20288;-63
2023/06/03 06:49:58;;;;;;;38.97;36.43;;;;;;;;;;5008043;28;20076;-62
2023/06/03 06:52:26;;;;;;;35.53;33.43;;;;;;;;;;5019055;28;20286;-63
2023/06/03 06:54:54;;;;;;;34.10;32.20;;;;;;;;;;5019440;28;20399;-66
2023/06/03 06:57:23;;;;;;;35.43;33.33;;;;;;;;;;5017843;28;20730;-62
2023/06/03 06:59:52;;;;;;;32.57;30.83;;;;;;;;;;5035306;28;20821;-62
2023/06/03 07:02:19;;;;;;;34.67;32.70;;;;;;;;;;5020457;28;20284;-62
2023/06/03 07:04:44;;;;;;;33.70;31.93;;;;;;;;;;5021699;28;20294;-63
2023/06/03 07:07:10;;;;;;;46.50;43.80;;;;;;;;;;5020614;28;20630;-63
2023/06/03 07:09:35;;;;;;;35.13;33.20;;;;;;;;;;5020161;28;20071;-61
2023/06/03 07:12:01;;;;;;;39.67;37.20;;;;;;;;;;5009582;28;20033;-63
2023/06/03 07:14:29;;;;;;;48.27;45.73;;;;;;;;;;5021344;28;20034;-63
2023/06/03 07:16:54;;;;;;;39.33;37.23;;;;;;;;;;5035633;28;20037;-63
2023/06/03 07:19:20;;;;;;;42.83;40.60;;;;;;;;;;5009329;28;20363;-62
2023/06/03 07:21:48;;;;;;;41.93;39.47;;;;;;;;;;5017820;28;20264;-63
2023/06/03 07:24:15;;;;;;;44.23;41.93;;;;;;;;;;5019470;28;20291;-63
2023/06/03 07:26:45;;;;;;;44.17;41.80;;;;;;;;;;5009612;28;20033;-63
2023/06/03 07:29:10;;;;;;;47.50;44.83;;;;;;;;;;5020404;28;20280;-61
2023/06/03 07:31:36;;;;;;;41.63;39.40;;;;;;;;;;5019080;28;20288;-61
2023/06/03 07:34:02;;;;;;;43.17;40.80;;;;;;;;;;5008169;28;20502;-62
2023/06/03 07:36:35;;;;;;;45.77;43.33;;;;;;;;;;5020194;28;20298;-61
2023/06/03 07:39:06;;;;;;;45.97;43.53;;;;;;;;;;5019826;28;20312;-60
2023/06/03 07:41:34;;;;;;;36.47;34.47;;;;;;;;;;5002394;28;20065;-61
2023/06/03 07:44:00;;;;;;;37.30;35.20;;;;;;;;;;5024803;28;20411;-61
2023/06/03 07:46:36;;;;;;;39.10;37.10;;;;;;;;;;5020261;28;20269;-61
2023/06/03 07:49:06;;;;;;;41.40;39.03;;;;;;;;;;5021043;28;20648;-61
2023/06/03 07:51:33;;;;;;;41.00;38.80;;;;;;;;;;5020221;28;20305;-61
2023/06/03 07:53:58;;;;;;;44.57;41.93;;;;;;;;;;5019419;28;20286;-62
2023/06/03 07:56:25;;;;;;;37.67;35.57;;;;;;;;;;5019582;28;20783;-61
2023/06/03 07:58:51;;;;;;;36.40;34.40;;;;;;;;;;5021973;28;20029;-61
2023/06/03 08:01:17;;;;;;;41.03;38.67;;;;;;;;;;5022585;28;20669;-61
2023/06/03 08:03:42;;;;;;;42.53;40.17;;;;;;;;;;5022228;28;20026;-61
2023/06/03 08:06:08;;;;;;;39.80;37.63;;;;;;;;;;5022562;28;20161;-60
2023/06/03 08:08:35;;;;;;;38.30;36.10;;;;;;;;;;5031167;28;20086;-61
2023/06/03 08:11:00;;;;;;;42.83;40.60;;;;;;;;;;5043049;28;20295;-62
2023/06/03 08:13:26;;;;;;;37.60;35.30;;;;;;;;;;5043235;28;20491;-61
2023/06/03 08:15:51;;;;;;;41.53;39.03;;;;;;;;;;5042370;28;20048;-59
2023/06/03 08:18:23;;;;;;;38.13;35.97;;;;;;;;;;5023332;28;20044;-59
2023/06/03 08:20:48;;;;;;;37.53;35.53;;;;;;;;;;5024891;28;20809;-59
2023/06/03 08:23:15;;;;;;;37.47;35.50;;;;;;;;;;5042749;28;20280;-61
2023/06/03 08:25:42;;;;;;;36.77;34.83;;;;;;;;;;5042899;28;20063;-60
2023/06/03 08:28:07;;;;;;;37.87;35.77;;;;;;;;;;5044212;28;20345;-60
2023/06/03 08:30:33;;;;;;;43.57;40.93;;;;;;;;;;5042379;28;20781;-61
2023/06/03 08:32:58;;;;;;;40.33;37.90;;;;;;;;;;5042463;28;20479;-62
2023/06/03 08:35:24;;;;;;;39.03;36.87;;;;;;;;;;5042999;28;20048;-62
2023/06/03 08:37:50;;;;;;;35.40;33.53;;;;;;;;;;5042569;28;20049;-60
2023/06/03 08:40:17;;;;;;;40.70;38.40;;;;;;;;;;5023704;28;20090;-60
2023/06/03 08:42:47;;;;;;;38.93;36.80;;;;;;;;;;5043249;28;20098;-60
2023/06/03 08:45:14;;;;;;;38.40;36.10;;;;;;;;;;5039618;28;20291;-60
2023/06/03 08:47:58;;;;;;;37.07;35.00;;;;;;;;;;5042916;28;20287;-60
2023/06/03 08:50:25;;;;;;;39.23;36.97;;;;;;;;;;5042206;28;20268;-59
2023/06/03 08:52:52;;;;;;;44.20;41.70;;;;;;;;;;5041760;28;20370;-61
2023/06/03 08:55:18;;;;;;;39.17;36.97;;;;;;;;;;5042315;28;20769;-60
2023/06/03 08:57:56;;;;;;;36.23;34.17;;;;;;;;;;5043438;28;20291;-60
2023/06/03 09:00:26;;;;;;;37.37;35.33;;;;;;;;;;5041549;28;20698;-60
2023/06/03 09:02:52;;;;;;;34.07;32.27;;;;;;;;;;5042620;28;20279;-61
2023/06/03 09:05:20;;;;;;;47.97;44.67;;;;;;;;;;5041248;28;20330;-61
2023/06/03 09:07:47;;;;;;;44.33;41.53;;;;;;;;;;5042304;28;20788;-62
2023/06/03 09:10:16;;;;;;;39.57;37.10;;;;;;;;;;5040961;28;20279;-62
2023/06/03 09:12:43;;;;;;;41.93;39.43;;;;;;;;;;5041438;28;20540;-62
2023/06/03 09:15:08;;;;;;;39.23;36.97;;;;;;;;;;5012367;28;20302;-63
2023/06/03 09:17:36;;;;;;;38.73;36.50;;;;;;;;;;5041521;28;20283;-63
2023/06/03 09:20:02;;;;;;;38.40;36.13;;;;;;;;;;5040908;28;20063;-63
2023/06/03 09:22:28;;;;;;;38.03;35.83;;;;;;;;;;5042119;28;20283;-63
2023/06/03 09:24:53;;;;;;;40.20;37.87;;;;;;;;;;5041715;28;20032;-63
2023/06/03 09:27:19;;;;;;;40.00;37.63;;;;;;;;;;5023863;28;20041;-60
2023/06/03 09:29:44;;;;;;;38.57;36.30;;;;;;;;;;5040607;28;20036;-64
2023/06/03 09:32:10;;;;;;;39.63;37.20;;;;;;;;;;5040408;28;20151;-63
2023/06/03 09:34:36;;;;;;;44.37;41.63;;;;;;;;;;5041398;28;20041;-62
2023/06/03 09:37:08;;;;;;;43.23;41.07;;;;;;;;;;5041232;28;20048;-62
2023/06/03 09:39:35;;;;;;;38.70;36.43;;;;;;;;;;5041876;28;20519;-62
2023/06/03 09:42:00;;;;;;;41.70;39.20;;;;;;;;;;5041389;28;20294;-60
2023/06/03 09:44:39;;;;;;;42.33;39.77;;;;;;;;;;5040360;28;20635;-63
2023/06/03 09:47:05;;;;;;;40.93;38.63;;;;;;;;;;5041402;28;20484;-62
2023/06/03 09:49:30;;;;;;;41.63;39.17;;;;;;;;;;5042551;28;20581;-62
2023/06/03 09:51:56;;;;;;;42.03;39.57;;;;;;;;;;5041347;28;20090;-63
2023/06/03 09:54:25;;;;;;;41.83;39.53;;;;;;;;;;5040003;28;20466;-63
2023/06/03 09:56:51;;;;;;;45.30;42.83;;;;;;;;;;5038761;28;20037;-63
2023/06/03 09:59:17;;;;;;;40.30;38.17;;;;;;;;;;5023306;28;20283;-63
2023/06/03 10:01:45;;;;;;;39.57;37.37;;;;;;;;;;5021113;28;20376;-64
2023/06/03 10:04:11;;;;;;;42.97;40.47;;;;;;;;;;5041166;28;20062;-62
2023/06/03 10:06:38;;;;;;;45.87;43.27;;;;;;;;;;5040457;28;20132;-63
2023/06/03 10:09:19;;;;;;;40.20;38.00;;;;;;;;;;5040816;28;20172;-64
2023/06/03 10:11:51;;;;;;;43.00;40.53;;;;;;;;;;5038134;28;20062;-62
2023/06/03 10:14:21;;;;;;;39.33;37.33;;;;;;;;;;5040517;28;20047;-63
2023/06/03 10:17:02;;;;;;;46.17;43.67;;;;;;;;;;5039527;28;20055;-61
2023/06/03 10:19:27;;;;;;;42.63;40.27;;;;;;;;;;5040605;28;20476;-63
2023/06/03 10:21:54;;;;;;;46.30;43.73;;;;;;;;;;5020424;28;20048;-63
2023/06/03 10:24:20;;;;;;;41.57;39.43;;;;;;;;;;5041217;28;20040;-62
2023/06/03 10:26:45;;;;;;;43.17;40.97;;;;;;;;;;5041013;28;20247;-62
2023/06/03 10:29:11;;;;;;;41.93;39.60;;;;;;;;;;5040685;28;20040;-62
2023/06/03 10:31:39;;;;;;;42.97;40.70;;;;;;;;;;5038955;28;20044;-64
2023/06/03 10:34:05;;;;;;;49.90;47.30;;;;;;;;;;5021598;28;20032;-62
2023/06/03 10:36:30;;;;;;;46.03;43.53;;;;;;;;;;5039923;28;20400;-63
2023/06/03 10:38:56;;;;;;;44.53;42.07;;;;;;;;;;5040581;28;20424;-63
2023/06/03 10:41:22;;;;;;;45.03;42.57;;;;;;;;;;5041520;28;20429;-61
2023/06/03 10:43:49;;;;;;;48.60;45.97;;;;;;;;;;5036611;28;20112;-62
2023/06/03 10:46:15;;;;;;;45.83;43.40;;;;;;;;;;5039689;28;20545;-64
2023/06/03 10:48:42;;;;;;;50.17;47.13;;;;;;;;;;5039982;28;20039;-63
2023/06/03 10:51:07;;;;;;;46.87;44.37;;;;;;;;;;5038755;28;20029;-62
2023/06/03 10:54:08;;;;;;;49.27;46.53;;;;;;;;;;5039997;28;20032;-62
2023/06/03 10:56:34;;;;;;;46.50;43.87;;;;;;;;;;4960671;28;20089;-63
2023/06/03 10:59:03;;;;;;;53.10;49.97;;;;;;;;;;4964557;28;20091;-63
2023/06/03 11:01:47;;;;;;;43.70;41.33;;;;;;;;;;4960622;28;20039;-62
2023/06/03 11:04:16;;;;;;;43.40;41.10;;;;;;;;;;4962662;28;20529;-62
2023/06/03 11:06:42;;;;;;;45.60;42.80;;;;;;;;;;4942963;28;20122;-63
2023/06/03 11:09:15;;;;;;;42.83;40.27;;;;;;;;;;4961789;28;20059;-61
2023/06/03 11:11:41;;;;;;;42.77;40.27;;;;;;;;;;4960071;28;20053;-63
2023/06/03 11:14:07;;;;;;;41.13;38.87;;;;;;;;;;4961596;28;20030;-63
2023/06/03 11:17:05;;;;;;;45.00;42.43;;;;;;;;;;4961666;28;20126;-64
2023/06/03 11:19:34;;;;;;;45.20;42.67;;;;;;;;;;4939989;28;20469;-64
2023/06/03 11:22:00;;;;;;;42.47;40.10;;;;;;;;;;4961268;28;20102;-65
2023/06/03 11:24:38;;;;;;;45.33;42.83;;;;;;;;;;4961310;28;20362;-62
2023/06/03 11:27:09;;;;;;;47.30;44.50;;;;;;;;;;4961164;28;20482;-62
2023/06/03 11:29:51;;;;;;;48.30;45.70;;;;;;;;;;4967505;28;20045;-62
2023/06/03 11:32:26;;;;;;;50.93;47.60;;;;;;;;;;5039456;28;20040;-62
2023/06/03 11:35:15;;;;;;;54.13;50.77;;;;;;;;;;5042497;28;20056;-61
2023/06/03 11:37:41;;;;;;;47.83;44.97;;;;;;;;;;5034865;28;20684;-63
2023/06/03 11:40:06;;;;;;;43.20;40.87;;;;;;;;;;5043989;28;20051;-63
2023/06/03 11:42:32;;;;;;;48.07;45.40;;;;;;;;;;5042515;28;20265;-59
2023/06/03 11:45:16;;;;;;;47.37;44.53;;;;;;;;;;5042009;28;20056;-61
2023/06/03 11:47:48;;;;;;;46.80;44.23;;;;;;;;;;5045157;28;20033;-62
2023/06/03 11:50:15;;;;;;;40.53;38.43;;;;;;;;;;5009118;28;20206;-64
2023/06/03 11:52:41;;;;;;;43.03;40.67;;;;;;;;;;5042289;28;20037;-61
2023/06/03 11:55:06;;;;;;;49.40;46.70;;;;;;;;;;5044811;28;20387;-60
2023/06/03 11:57:33;;;;;;;45.70;43.20;;;;;;;;;;5044337;28;20074;-61
2023/06/03 11:59:59;;;;;;;44.30;42.00;;;;;;;;;;5042489;28;20744;-62
2023/06/03 12:02:25;;;;;;;43.73;41.47;;;;;;;;;;5043918;28;20136;-63
2023/06/03 12:04:50;;;;;;;46.33;43.73;;;;;;;;;;5043363;28;20036;-61
2023/06/03 12:07:16;;;;;;;41.27;39.07;;;;;;;;;;5043834;28;20494;-60
2023/06/03 12:09:41;;;;;;;48.83;46.17;;;;;;;;;;5042581;28;20081;-61
2023/06/03 12:12:08;;;;;;;41.03;38.93;;;;;;;;;;5044462;28;20722;-61
2023/06/03 12:14:37;;;;;;;49.10;46.30;;;;;;;;;;5043792;28;20583;-60
2023/06/03 12:17:08;;;;;;;48.43;45.73;;;;;;;;;;5042005;28;20040;-61
2023/06/03 12:19:44;;;;;;;49.60;46.97;;;;;;;;;;5042997;28;20033;-64
2023/06/03 12:22:10;;;;;;;43.87;41.43;;;;;;;;;;5042811;28;20048;-61
2023/06/03 12:24:39;;;;;;;46.73;43.93;;;;;;;;;;5043555;28;20551;-61
2023/06/03 12:27:15;;;;;;;45.30;42.77;;;;;;;;;;5044602;28;20066;-61
2023/06/03 12:29:43;;;;;;;46.73;44.23;;;;;;;;;;5041968;28;20044;-60
2023/06/03 12:32:09;;;;;;;47.40;44.97;;;;;;;;;;5043495;28;20388;-60
2023/06/03 12:34:35;;;;;;;47.63;45.03;;;;;;;;;;5042630;28;20035;-61
2023/06/03 12:37:02;;;;;;;52.43;49.57;;;;;;;;;;5042990;28;20044;-61
2023/06/03 12:39:44;;;;;;;48.47;45.67;;;;;;;;;;5024616;28;20036;-62
2023/06/03 12:42:10;;;;;;;50.00;47.27;;;;;;;;;;5041845;28;20642;-59
2023/06/03 12:44:43;;;;;;;64.70;61.23;;;;;;;;;;5040311;28;20105;-61
2023/06/03 12:47:08;;;;;;;42.83;40.63;;;;;;;;;;5043198;28;20045;-60
2023/06/03 12:49:37;;;;;;;47.23;44.53;;;;;;;;;;5041965;28;20566;-60
2023/06/03 12:52:13;;;;;;;55.13;52.23;;;;;;;;;;5039957;28;20559;-61
2023/06/03 12:54:40;;;;;;;45.53;43.13;;;;;;;;;;5041247;28;20537;-60
2023/06/03 12:57:06;;;;;;;53.33;50.73;;;;;;;;;;5041337;28;20039;-60
2023/06/03 12:59:32;;;;;;;52.97;50.00;;;;;;;;;;5041868;28;20040;-61
2023/06/03 13:01:57;;;;;;;45.73;43.33;;;;;;;;;;5042677;28;20037;-62
2023/06/03 13:04:23;;;;;;;49.17;46.73;;;;;;;;;;5041721;28;20041;-60
2023/06/03 13:06:48;;;;;;;52.27;49.70;;;;;;;;;;5042602;28;20051;-63
2023/06/03 13:09:14;;;;;;;47.13;44.67;;;;;;;;;;5042440;28;20603;-62
2023/06/03 13:11:39;;;;;;;44.40;42.07;;;;;;;;;;5042469;28;20036;-62
2023/06/03 13:14:05;;;;;;;58.70;55.90;;;;;;;;;;5041766;28;20466;-62
2023/06/03 13:16:30;;;;;;;51.20;47.97;;;;;;;;;;5039265;28;20076;-63
2023/06/03 13:18:56;;;;;;;46.33;43.87;;;;;;;;;;5043233;28;20041;-61
2023/06/03 13:21:21;;;;;;;45.93;43.47;;;;;;;;;;5042160;28;20115;-62
2023/06/03 13:23:47;;;;;;;42.67;40.50;;;;;;;;;;5056869;28;20068;-62
2023/06/03 13:26:13;;;;;;;46.93;44.53;;;;;;;;;;5038629;28;20098;-61
2023/06/03 13:28:38;;;;;;;42.70;40.50;;;;;;;;;;5041705;28;20638;-61
2023/06/03 13:31:04;;;;;;;40.23;37.97;;;;;;;;;;5042005;28;20052;-61
2023/06/03 13:33:30;;;;;;;51.33;48.37;;;;;;;;;;5042118;28;20047;-61
2023/06/03 13:35:55;;;;;;;51.87;49.17;;;;;;;;;;5042086;28;20376;-61
2023/06/03 13:38:23;;;;;;;51.90;49.40;;;;;;;;;;5041453;28;20037;-63
2023/06/03 13:40:48;;;;;;;44.90;42.53;;;;;;;;;;5041650;28;20037;-62
2023/06/03 13:43:14;;;;;;;47.60;45.00;;;;;;;;;;5042822;28;20043;-61
2023/06/03 13:45:40;;;;;;;45.87;43.13;;;;;;;;;;5042060;28;20150;-62
2023/06/03 13:48:05;;;;;;;43.97;41.80;;;;;;;;;;5042488;28;20124;-61
2023/06/03 13:50:31;;;;;;;47.70;44.90;;;;;;;;;;5041033;28;20129;-62
2023/06/03 13:52:57;;;;;;;66.87;63.83;;;;;;;;;;5040854;28;20041;-62
2023/06/03 13:55:22;;;;;;;55.30;51.70;;;;;;;;;;5041390;28;20087;-62
2023/06/03 13:57:51;;;;;;;49.90;46.93;;;;;;;;;;5042549;28;20215;-62
2023/06/03 14:00:16;;;;;;;49.83;46.53;;;;;;;;;;5041356;28;20037;-63
2023/06/03 14:02:42;;;;;;;47.47;44.80;;;;;;;;;;5022128;28;20495;-62
2023/06/03 14:05:08;;;;;;;49.67;46.50;;;;;;;;;;5041286;28;20060;-61
2023/06/03 14:07:33;;;;;;;51.87;49.27;;;;;;;;;;5041606;28;20380;-61
2023/06/03 14:09:59;;;;;;;47.37;44.83;;;;;;;;;;5042051;28;20072;-62
2023/06/03 14:12:25;;;;;;;43.00;40.90;;;;;;;;;;5040797;28;20053;-62
2023/06/03 14:14:50;;;;;;;53.53;50.90;;;;;;;;;;5039855;28;20044;-61
2023/06/03 14:17:16;;;;;;;45.37;43.07;;;;;;;;;;5041488;28;20052;-61
2023/06/03 14:19:41;;;;;;;44.40;42.13;;;;;;;;;;5042113;28;20040;-60